^^
Saratoga-Weather Station Historical Data
Daily Summary for May 13, 2021 Units:  Both    English   Metric
Daily Weekly Monthly Yearly Custom
  High: Low: Average:
Temperature: 60.3 °F /  15.7 °C 43.9 °F /  6.6 °C 51.6 °F /  10.9 °C
Dew Point: 49.6 °F /  9.8 °C 41 °F /  5 °C 45 °F /  7.2 °C
Humidity: 93% 54% 79%
Wind Speed: 10.1mph /  16.3km/h - 1.6mph /  2.5km/h
Wind Gust: 13mph /  20.9km/h - -
Wind- - West
Pressure: 29.8 in /  1008.8 hPa 29.7 in /  1006.4 hPa -
Precipitation: 0.02 in /  0.5 mm    
Historical Graphs
 
 
Tabular Data for May 13, 2021
Time Temperature Dew Point Pressure Wind Wind Speed Wind Gust Humidity Rainfall Rate (Hourly) solar
00:02 48 °F /  8.9 °C 42.4 °F /  5.8 °C 29.8in /  1008.8hPa Calm     81% 0in /  0.0mm 0 W/m2
00:07 47.8 °F /  8.8 °C 42.3 °F /  5.7 °C 29.8in /  1008.8hPa Calm   1mph /  1.6km/h 81% 0in /  0.0mm 0 W/m2
00:12 47.8 °F /  8.8 °C 42.3 °F /  5.7 °C 29.8in /  1008.8hPa Calm   1mph /  1.6km/h 81% 0in /  0.0mm 0 W/m2
00:17 47.7 °F /  8.7 °C 42.1 °F /  5.6 °C 29.8in /  1008.8hPa Calm   1mph /  1.6km/h 81% 0in /  0.0mm 0 W/m2
00:22 47.5 °F /  8.6 °C 42.3 °F /  5.7 °C 29.8in /  1008.8hPa Calm     82% 0in /  0.0mm 0 W/m2
00:27 47.1 °F /  8.4 °C 41.9 °F /  5.5 °C 29.8in /  1008.8hPa Calm   1mph /  1.6km/h 82% 0in /  0.0mm 0 W/m2
00:32 46.9 °F /  8.3 °C 41.7 °F /  5.4 °C 29.8in /  1008.8hPa Calm     82% 0in /  0.0mm 0 W/m2
00:37 46.9 °F /  8.3 °C 42.1 °F /  5.6 °C 29.8in /  1008.5hPa Calm     83% 0in /  0.0mm 0 W/m2
00:42 46.8 °F /  8.2 °C 41.9 °F /  5.5 °C 29.8in /  1008.8hPa Calm   1mph /  1.6km/h 83% 0in /  0.0mm 0 W/m2
00:47 46.6 °F /  8.1 °C 41.7 °F /  5.4 °C 29.8in /  1008.5hPa Calm     83% 0in /  0.0mm 0 W/m2
00:52 46.6 °F /  8.1 °C 41.7 °F /  5.4 °C 29.8in /  1008.5hPa Calm   1mph /  1.6km/h 83% 0in /  0.0mm 0 W/m2
00:57 46.2 °F /  7.9 °C 41.4 °F /  5.2 °C 29.8in /  1008.5hPa Calm     83% 0in /  0.0mm 0 W/m2
01:02 46.2 °F /  7.9 °C 41.7 °F /  5.4 °C 29.8in /  1008.5hPa Calm     84% 0in /  0.0mm 0 W/m2
01:07 46.2 °F /  7.9 °C 41.7 °F /  5.4 °C 29.8in /  1008.5hPa Calm     84% 0in /  0.0mm 0 W/m2
01:12 46 °F /  7.8 °C 41.5 °F /  5.3 °C 29.8in /  1008.5hPa Calm     84% 0in /  0.0mm 0 W/m2
01:17 46 °F /  7.8 °C 41.7 °F /  5.4 °C 29.8in /  1008.5hPa Calm     85% 0in /  0.0mm 0 W/m2
01:22 45.9 °F /  7.7 °C 41.5 °F /  5.3 °C 29.8in /  1008.5hPa Calm     85% 0in /  0.0mm 0 W/m2
01:27 45.9 °F /  7.7 °C 41.5 °F /  5.3 °C 29.8in /  1008.5hPa Calm     85% 0in /  0.0mm 0 W/m2
01:32 45.7 °F /  7.6 °C 41.4 °F /  5.2 °C 29.8in /  1008.5hPa Calm     85% 0in /  0.0mm 0 W/m2
01:37 45.5 °F /  7.5 °C 41.5 °F /  5.3 °C 29.8in /  1008.5hPa Calm     86% 0in /  0.0mm 0 W/m2
01:42 45.5 °F /  7.5 °C 41.5 °F /  5.3 °C 29.8in /  1008.5hPa Calm     86% 0in /  0.0mm 0 W/m2
01:47 45.3 °F /  7.4 °C 41.4 °F /  5.2 °C 29.8in /  1008.5hPa Calm     86% 0in /  0.0mm 0 W/m2
01:52 45.3 °F /  7.4 °C 41.4 °F /  5.2 °C 29.8in /  1008.5hPa Calm     86% 0in /  0.0mm 0 W/m2
01:57 45.3 °F /  7.4 °C 41.7 °F /  5.4 °C 29.8in /  1008.5hPa Calm     87% 0in /  0.0mm 0 W/m2
02:02 45.1 °F /  7.3 °C 41.2 °F /  5.1 °C 29.8in /  1008.5hPa Calm     86% 0in /  0.0mm 0 W/m2
02:07 45.1 °F /  7.3 °C 41.2 °F /  5.1 °C 29.8in /  1008.5hPa Calm     86% 0in /  0.0mm 0 W/m2
02:12 45 °F /  7.2 °C 41.4 °F /  5.2 °C 29.8in /  1008.5hPa Calm     87% 0in /  0.0mm 0 W/m2
02:17 45 °F /  7.2 °C 41.4 °F /  5.2 °C 29.8in /  1008.5hPa Calm     87% 0in /  0.0mm 0 W/m2
02:22 44.8 °F /  7.1 °C 41.2 °F /  5.1 °C 29.8in /  1008.5hPa Calm     87% 0in /  0.0mm 0 W/m2
02:27 44.6 °F /  7 °C 41 °F /  5 °C 29.8in /  1008.5hPa Calm     87% 0in /  0.0mm 0 W/m2
02:32 44.6 °F /  7 °C 41.2 °F /  5.1 °C 29.8in /  1008.5hPa Calm     88% 0in /  0.0mm 0 W/m2
02:37 44.4 °F /  6.9 °C 41.2 °F /  5.1 °C 29.8in /  1008.5hPa Calm     88% 0in /  0.0mm 0 W/m2
02:42 44.4 °F /  6.9 °C 41.4 °F /  5.2 °C 29.8in /  1008.5hPa Calm     89% 0in /  0.0mm 0 W/m2
02:47 44.4 °F /  6.9 °C 41.4 °F /  5.2 °C 29.8in /  1008.1hPa Calm     89% 0in /  0.0mm 0 W/m2
02:52 44.2 °F /  6.8 °C 41.2 °F /  5.1 °C 29.8in /  1008.1hPa Calm     89% 0in /  0.0mm 0 W/m2
02:57 44.2 °F /  6.8 °C 41.2 °F /  5.1 °C 29.8in /  1008.1hPa Calm     89% 0in /  0.0mm 0 W/m2
03:02 44.2 °F /  6.8 °C 41.5 °F /  5.3 °C 29.8in /  1008.1hPa Calm     90% 0in /  0.0mm 0 W/m2
03:07 44.2 °F /  6.8 °C 41.5 °F /  5.3 °C 29.8in /  1008.1hPa Calm     90% 0in /  0.0mm 0 W/m2
03:12 44.2 °F /  6.8 °C 41.5 °F /  5.3 °C 29.8in /  1008.1hPa Calm     90% 0in /  0.0mm 0 W/m2
03:17 44.2 °F /  6.8 °C 41.7 °F /  5.4 °C 29.8in /  1008.1hPa Calm     91% 0in /  0.0mm 0 W/m2
03:22 44.1 °F /  6.7 °C 41.5 °F /  5.3 °C 29.8in /  1007.8hPa Calm     91% 0in /  0.0mm 0 W/m2
03:27 44.1 °F /  6.7 °C 41.5 °F /  5.3 °C 29.8in /  1007.8hPa Calm     91% 0in /  0.0mm 0 W/m2
03:32 43.9 °F /  6.6 °C 41.4 °F /  5.2 °C 29.8in /  1008.1hPa Calm     91% 0in /  0.0mm 0 W/m2
03:37 43.9 °F /  6.6 °C 41.4 °F /  5.2 °C 29.8in /  1007.8hPa Calm     91% 0in /  0.0mm 0 W/m2
03:43 43.9 °F /  6.6 °C 41.7 °F /  5.4 °C 29.8in /  1007.8hPa Calm     92% 0in /  0.0mm 0 W/m2
03:48 43.9 °F /  6.6 °C 41.7 °F /  5.4 °C 29.8in /  1007.8hPa Calm     92% 0in /  0.0mm 0 W/m2
03:53 43.9 °F /  6.6 °C 41.7 °F /  5.4 °C 29.8in /  1007.8hPa Calm     92% 0in /  0.0mm 0 W/m2
03:58 44.1 °F /  6.7 °C 41.9 °F /  5.5 °C 29.8in /  1007.8hPa Calm     92% 0in /  0.0mm 0 W/m2
04:03 44.1 °F /  6.7 °C 41.9 °F /  5.5 °C 29.8in /  1007.8hPa Calm     92% 0in /  0.0mm 0 W/m2
04:08 43.9 °F /  6.6 °C 41.7 °F /  5.4 °C 29.8in /  1007.8hPa Calm     92% 0in /  0.0mm 0 W/m2
04:13 43.9 °F /  6.6 °C 41.7 °F /  5.4 °C 29.8in /  1007.8hPa Calm     92% 0in /  0.0mm 0 W/m2
04:18 43.9 °F /  6.6 °C 41.7 °F /  5.4 °C 29.8in /  1007.8hPa Calm     92% 0in /  0.0mm 0 W/m2
04:23 43.9 °F /  6.6 °C 41.7 °F /  5.4 °C 29.8in /  1007.5hPa Calm     92% 0in /  0.0mm 0 W/m2
04:28 43.9 °F /  6.6 °C 41.7 °F /  5.4 °C 29.8in /  1007.5hPa Calm     92% 0in /  0.0mm 0 W/m2
04:33 43.9 °F /  6.6 °C 41.7 °F /  5.4 °C 29.8in /  1007.5hPa Calm     92% 0in /  0.0mm 0 W/m2
04:38 43.9 °F /  6.6 °C 41.9 °F /  5.5 °C 29.8in /  1007.5hPa Calm     93% 0in /  0.0mm 0 W/m2
04:43 44.1 °F /  6.7 °C 42.1 °F /  5.6 °C 29.8in /  1007.5hPa Calm     93% 0in /  0.0mm 0 W/m2
04:48 44.1 °F /  6.7 °C 42.1 °F /  5.6 °C 29.8in /  1007.5hPa Calm     93% 0in /  0.0mm 0 W/m2
04:53 44.2 °F /  6.8 °C 42.3 °F /  5.7 °C 29.8in /  1007.5hPa Calm     93% 0in /  0.0mm 0 W/m2
04:58 44.2 °F /  6.8 °C 42.3 °F /  5.7 °C 29.8in /  1007.5hPa Calm     93% 0in /  0.0mm 0 W/m2
05:03 44.2 °F /  6.8 °C 42.3 °F /  5.7 °C 29.8in /  1007.5hPa Calm     93% 0in /  0.0mm 0 W/m2
05:08 44.2 °F /  6.8 °C 42.3 °F /  5.7 °C 29.8in /  1007.5hPa Calm     93% 0in /  0.0mm 0 W/m2
05:13 44.2 °F /  6.8 °C 42.3 °F /  5.7 °C 29.8in /  1007.5hPa Calm     93% 0in /  0.0mm 0 W/m2
05:18 44.2 °F /  6.8 °C 42.3 °F /  5.7 °C 29.8in /  1007.5hPa Calm     93% 0in /  0.0mm 0 W/m2
05:23 44.2 °F /  6.8 °C 42.3 °F /  5.7 °C 29.8in /  1007.5hPa Calm     93% 0in /  0.0mm 0 W/m2
05:28 44.4 °F /  6.9 °C 42.4 °F /  5.8 °C 29.8in /  1007.5hPa Calm     93% 0in /  0.0mm 0 W/m2
05:33 44.6 °F /  7 °C 42.6 °F /  5.9 °C 29.8in /  1007.5hPa Calm     93% 0in /  0.0mm 0 W/m2
05:38 44.8 °F /  7.1 °C 42.8 °F /  6 °C 29.8in /  1007.5hPa Calm     93% 0in /  0.0mm 0 W/m2
05:43 44.8 °F /  7.1 °C 42.8 °F /  6 °C 29.8in /  1007.5hPa Calm     93% 0in /  0.0mm 0 W/m2
05:48 45 °F /  7.2 °C 43 °F /  6.1 °C 29.7in /  1007.1hPa Calm     93% 0in /  0.0mm 0 W/m2
05:53 45 °F /  7.2 °C 42.8 °F /  6 °C 29.8in /  1007.5hPa Calm     92% 0in /  0.0mm 0 W/m2
05:58 45 °F /  7.2 °C 42.8 °F /  6 °C 29.8in /  1007.5hPa Calm     92% 0in /  0.0mm 0 W/m2
06:03 45.1 °F /  7.3 °C 43 °F /  6.1 °C 29.8in /  1007.5hPa Calm     92% 0in /  0.0mm 0 W/m2
06:08 45.1 °F /  7.3 °C 43 °F /  6.1 °C 29.8in /  1007.5hPa Calm     92% 0in /  0.0mm 7 W/m2
06:13 45.1 °F /  7.3 °C 43 °F /  6.1 °C 29.8in /  1007.5hPa West 0.9mph /  1.4km/h 1mph /  1.6km/h 92% 0in /  0.0mm 11 W/m2
06:18 45.1 °F /  7.3 °C 42.6 °F /  5.9 °C 29.8in /  1007.5hPa Calm   1mph /  1.6km/h 91% 0in /  0.0mm 14 W/m2
06:23 45.1 °F /  7.3 °C 42.6 °F /  5.9 °C 29.8in /  1007.5hPa WNW 2mph /  3.2km/h 2mph /  3.2km/h 91% 0in /  0.0mm 18 W/m2
06:28 45.1 °F /  7.3 °C 42.6 °F /  5.9 °C 29.8in /  1007.5hPa Calm   2mph /  3.2km/h 91% 0in /  0.0mm 19 W/m2
06:33 45.1 °F /  7.3 °C 42.6 °F /  5.9 °C 29.8in /  1007.5hPa Calm     91% 0in /  0.0mm 21 W/m2
06:38 45.1 °F /  7.3 °C 42.6 °F /  5.9 °C 29.8in /  1007.5hPa Calm   2mph /  3.2km/h 91% 0in /  0.0mm 26 W/m2
06:43 45.3 °F /  7.4 °C 42.8 °F /  6 °C 29.8in /  1007.5hPa Calm     91% 0in /  0.0mm 28 W/m2
06:48 45.3 °F /  7.4 °C 42.8 °F /  6 °C 29.8in /  1007.5hPa Calm     91% 0in /  0.0mm 32 W/m2
06:53 45.5 °F /  7.5 °C 43 °F /  6.1 °C 29.8in /  1007.5hPa Calm     91% 0in /  0.0mm 32 W/m2
06:58 45.7 °F /  7.6 °C 43.2 °F /  6.2 °C 29.8in /  1007.5hPa Calm     91% 0in /  0.0mm 30 W/m2
07:03 45.9 °F /  7.7 °C 43.3 °F /  6.3 °C 29.7in /  1007.1hPa Calm     91% 0in /  0.0mm 28 W/m2
07:08 45.9 °F /  7.7 °C 43.3 °F /  6.3 °C 29.8in /  1007.5hPa WNW 0.9mph /  1.4km/h 1mph /  1.6km/h 91% 0in /  0.0mm 33 W/m2
07:13 46 °F /  7.8 °C 43.3 °F /  6.3 °C 29.8in /  1007.5hPa Calm   2mph /  3.2km/h 90% 0in /  0.0mm 39 W/m2
07:18 46 °F /  7.8 °C 43.3 °F /  6.3 °C 29.7in /  1007.1hPa Calm     90% 0in /  0.0mm 39 W/m2
07:23 46 °F /  7.8 °C 43 °F /  6.1 °C 29.8in /  1007.5hPa Calm   2mph /  3.2km/h 89% 0in /  0.0mm 39 W/m2
07:28 46.2 °F /  7.9 °C 43.2 °F /  6.2 °C 29.7in /  1007.1hPa Calm     89% 0in /  0.0mm 40 W/m2
07:33 46.2 °F /  7.9 °C 43.2 °F /  6.2 °C 29.7in /  1007.1hPa Calm     89% 0in /  0.0mm 44 W/m2
07:38 46.4 °F /  8 °C 43 °F /  6.1 °C 29.7in /  1007.1hPa Calm     88% 0in /  0.0mm 56 W/m2
07:43 46.6 °F /  8.1 °C 43.2 °F /  6.2 °C 29.7in /  1007.1hPa Calm   1mph /  1.6km/h 88% 0in /  0.0mm 70 W/m2
07:48 46.8 °F /  8.2 °C 43.3 °F /  6.3 °C 29.7in /  1007.1hPa Calm     88% 0in /  0.0mm 70 W/m2
07:53 46.8 °F /  8.2 °C 43.3 °F /  6.3 °C 29.7in /  1006.8hPa Calm     88% 0in /  0.0mm 76 W/m2
07:58 46.9 °F /  8.3 °C 43.3 °F /  6.3 °C 29.7in /  1006.8hPa Calm     87% 0in /  0.0mm 79 W/m2
08:03 47.3 °F /  8.5 °C 43.7 °F /  6.5 °C 29.7in /  1006.8hPa Calm   2mph /  3.2km/h 87% 0in /  0.0mm 77 W/m2
08:08 47.5 °F /  8.6 °C 43.9 °F /  6.6 °C 29.7in /  1006.8hPa Calm   1mph /  1.6km/h 87% 0in /  0.0mm 84 W/m2
08:13 47.7 °F /  8.7 °C 44.1 °F /  6.7 °C 29.7in /  1006.8hPa Calm     87% 0in /  0.0mm 100 W/m2
08:18 48 °F /  8.9 °C 44.4 °F /  6.9 °C 29.7in /  1006.8hPa Calm     87% 0in /  0.0mm 114 W/m2
08:23 48.7 °F /  9.3 °C 45 °F /  7.2 °C 29.7in /  1006.8hPa Calm     87% 0in /  0.0mm 120 W/m2
08:28 49.6 °F /  9.8 °C 45.7 °F /  7.6 °C 29.7in /  1006.8hPa WNW 0.9mph /  1.4km/h 2mph /  3.2km/h 86% 0in /  0.0mm 121 W/m2
08:33 50.7 °F /  10.4 °C 46 °F /  7.8 °C 29.7in /  1006.8hPa East 2mph /  3.2km/h 3mph /  4.8km/h 84% 0in /  0.0mm 127 W/m2
08:38 52 °F /  11.1 °C 46.4 °F /  8 °C 29.7in /  1006.8hPa ENE 2mph /  3.2km/h 4mph /  6.4km/h 81% 0in /  0.0mm 134 W/m2
08:43 52.3 °F /  11.3 °C 46.4 °F /  8 °C 29.7in /  1006.8hPa NE 0.9mph /  1.4km/h 3mph /  4.8km/h 80% 0in /  0.0mm 144 W/m2
08:48 52.5 °F /  11.4 °C 46.2 °F /  7.9 °C 29.7in /  1006.8hPa ENE 2mph /  3.2km/h 3mph /  4.8km/h 79% 0in /  0.0mm 234 W/m2
08:53 52.5 °F /  11.4 °C 46.6 °F /  8.1 °C 29.7in /  1006.8hPa ENE 2mph /  3.2km/h 3mph /  4.8km/h 80% 0in /  0.0mm 193 W/m2
08:58 52.9 °F /  11.6 °C 46.9 °F /  8.3 °C 29.7in /  1006.8hPa ESE 0.9mph /  1.4km/h 3mph /  4.8km/h 80% 0in /  0.0mm 434 W/m2
09:03 53.1 °F /  11.7 °C 47.1 °F /  8.4 °C 29.7in /  1006.8hPa East 2mph /  3.2km/h 3mph /  4.8km/h 80% 0in /  0.0mm 299 W/m2
09:08 53.4 °F /  11.9 °C 47.5 °F /  8.6 °C 29.7in /  1006.8hPa NE 4mph /  6.4km/h 4mph /  6.4km/h 80% 0in /  0.0mm 587 W/m2
09:13 53.8 °F /  12.1 °C 47.8 °F /  8.8 °C 29.7in /  1006.8hPa ESE 0.9mph /  1.4km/h 3mph /  4.8km/h 80% 0in /  0.0mm 399 W/m2
09:18 53.6 °F /  12 °C 47.3 °F /  8.5 °C 29.7in /  1006.8hPa NE 2mph /  3.2km/h 3mph /  4.8km/h 79% 0in /  0.0mm 318 W/m2
09:23 53.8 °F /  12.1 °C 47.8 °F /  8.8 °C 29.7in /  1006.8hPa NNE 2mph /  3.2km/h 3mph /  4.8km/h 80% 0in /  0.0mm 348 W/m2
09:28 54 °F /  12.2 °C 48 °F /  8.9 °C 29.7in /  1007.1hPa East 2mph /  3.2km/h 4mph /  6.4km/h 80% 0in /  0.0mm 221 W/m2
09:33 54.1 °F /  12.3 °C 48 °F /  8.9 °C 29.7in /  1006.8hPa NE 2mph /  3.2km/h 3mph /  4.8km/h 80% 0in /  0.0mm 211 W/m2
09:38 54.1 °F /  12.3 °C 48 °F /  8.9 °C 29.7in /  1007.1hPa ESE 2mph /  3.2km/h 5mph /  8km/h 80% 0in /  0.0mm 211 W/m2
09:43 54.1 °F /  12.3 °C 48 °F /  8.9 °C 29.7in /  1007.1hPa East 0.9mph /  1.4km/h 2mph /  3.2km/h 80% 0in /  0.0mm 223 W/m2
09:48 54.3 °F /  12.4 °C 48.2 °F /  9 °C 29.7in /  1007.1hPa Calm   3mph /  4.8km/h 80% 0in /  0.0mm 288 W/m2
09:53 54.9 °F /  12.7 °C 48.7 °F /  9.3 °C 29.7in /  1007.1hPa ENE 2mph /  3.2km/h 4mph /  6.4km/h 80% 0in /  0.0mm 283 W/m2
09:58 55.2 °F /  12.9 °C 48.7 °F /  9.3 °C 29.7in /  1007.1hPa Calm   2mph /  3.2km/h 79% 0in /  0.0mm 199 W/m2
10:03 55.4 °F /  13 °C 48.7 °F /  9.3 °C 29.7in /  1007.1hPa NNW 0.9mph /  1.4km/h 4mph /  6.4km/h 78% 0in /  0.0mm 169 W/m2
10:08 55.6 °F /  13.1 °C 48.6 °F /  9.2 °C 29.7in /  1007.1hPa North 0.9mph /  1.4km/h 2mph /  3.2km/h 77% 0in /  0.0mm 144 W/m2
10:13 55.8 °F /  13.2 °C 48 °F /  8.9 °C 29.7in /  1007.1hPa WSW 2.9mph /  4.7km/h 9mph /  14.5km/h 75% 0in /  0.0mm 229 W/m2
10:18 55.8 °F /  13.2 °C 48 °F /  8.9 °C 29.7in /  1007.1hPa NW 0.9mph /  1.4km/h 4mph /  6.4km/h 75% 0in /  0.0mm 241 W/m2
10:23 55.8 °F /  13.2 °C 48 °F /  8.9 °C 29.7in /  1007.1hPa Calm   9mph /  14.5km/h 75% 0in /  0.0mm 195 W/m2
10:29 55.8 °F /  13.2 °C 48 °F /  8.9 °C 29.7in /  1007.1hPa ENE 0.9mph /  1.4km/h 3mph /  4.8km/h 75% 0in /  0.0mm 144 W/m2
10:34 55.8 °F /  13.2 °C 48.4 °F /  9.1 °C 29.7in /  1007.1hPa WNW 4.9mph /  7.9km/h 6mph /  9.7km/h 76% 0in /  0.0mm 123 W/m2
10:39 55.6 °F /  13.1 °C 48.6 °F /  9.2 °C 29.7in /  1007.1hPa WNW 2.9mph /  4.7km/h 7mph /  11.3km/h 77% 0in /  0.0mm 165 W/m2
10:44 55.4 °F /  13 °C 48.4 °F /  9.1 °C 29.8in /  1007.5hPa NW 2.9mph /  4.7km/h 6mph /  9.7km/h 77% 0in /  0.0mm 221 W/m2
10:49 55.4 °F /  13 °C 48.7 °F /  9.3 °C 29.8in /  1007.5hPa WNW 2.9mph /  4.7km/h 4mph /  6.4km/h 78% 0in /  0.0mm 192 W/m2
10:54 55.4 °F /  13 °C 48.7 °F /  9.3 °C 29.8in /  1007.5hPa West 2mph /  3.2km/h 4mph /  6.4km/h 78% 0in /  0.0mm 144 W/m2
10:59 55.2 °F /  12.9 °C 48.7 °F /  9.3 °C 29.8in /  1007.5hPa NW 2mph /  3.2km/h 4mph /  6.4km/h 79% 0in /  0.0mm 132 W/m2
11:04 55 °F /  12.8 °C 48.6 °F /  9.2 °C 29.8in /  1007.5hPa WNW 2.9mph /  4.7km/h 8mph /  12.9km/h 79% 0in /  0.0mm 111 W/m2
11:09 54.9 °F /  12.7 °C 48.6 °F /  9.2 °C 29.8in /  1007.5hPa West 0.9mph /  1.4km/h 7mph /  11.3km/h 79% 0in /  0.0mm 135 W/m2
11:14 54.9 °F /  12.7 °C 48.7 °F /  9.3 °C 29.8in /  1007.5hPa WNW 2.9mph /  4.7km/h 8mph /  12.9km/h 80% 0in /  0.0mm 199 W/m2
11:19 54.9 °F /  12.7 °C 48.7 °F /  9.3 °C 29.8in /  1007.5hPa WNW 2mph /  3.2km/h 2mph /  3.2km/h 80% 0in /  0.0mm 246 W/m2
11:24 55 °F /  12.8 °C 48.6 °F /  9.2 °C 29.8in /  1007.5hPa Calm   10mph /  16.1km/h 79% 0in /  0.0mm 301 W/m2
11:29 55.4 °F /  13 °C 48.9 °F /  9.4 °C 29.8in /  1007.5hPa WSW 6.9mph /  11.1km/h 8mph /  12.9km/h 79% 0in /  0.0mm 287 W/m2
11:34 55.4 °F /  13 °C 48.4 °F /  9.1 °C 29.8in /  1007.5hPa West 8.1mph /  13km/h 9mph /  14.5km/h 77% 0in /  0.0mm 176 W/m2
11:39 55 °F /  12.8 °C 48.4 °F /  9.1 °C 29.8in /  1007.5hPa SSE 2.9mph /  4.7km/h 4mph /  6.4km/h 78% 0in /  0.0mm 160 W/m2
11:44 55 °F /  12.8 °C 48.4 °F /  9.1 °C 29.8in /  1007.5hPa SSE 0.9mph /  1.4km/h 3mph /  4.8km/h 78% 0in /  0.0mm 181 W/m2
11:49 54.7 °F /  12.6 °C 47.7 °F /  8.7 °C 29.8in /  1007.5hPa WNW 4.9mph /  7.9km/h 10mph /  16.1km/h 77% 0in /  0.0mm 223 W/m2
11:54 54.3 °F /  12.4 °C 47.3 °F /  8.5 °C 29.8in /  1007.5hPa NW 2.9mph /  4.7km/h 10mph /  16.1km/h 77% 0in /  0.0mm 264 W/m2
11:59 54.3 °F /  12.4 °C 47.7 °F /  8.7 °C 29.8in /  1007.5hPa West 0.9mph /  1.4km/h 6mph /  9.7km/h 78% 0in /  0.0mm 297 W/m2
12:04 54.1 °F /  12.3 °C 47.5 °F /  8.6 °C 29.8in /  1007.5hPa West 6mph /  9.7km/h 13mph /  20.9km/h 78% 0in /  0.0mm 316 W/m2
12:09 54 °F /  12.2 °C 48 °F /  8.9 °C 29.8in /  1007.5hPa WSW 4mph /  6.4km/h 6mph /  9.7km/h 80% 0in /  0.0mm 306 W/m2
12:14 54 °F /  12.2 °C 48 °F /  8.9 °C 29.8in /  1007.5hPa NW 4mph /  6.4km/h 13mph /  20.9km/h 80% 0in /  0.0mm 127 W/m2
12:19 53.4 °F /  11.9 °C 47.7 °F /  8.7 °C 29.8in /  1007.5hPa NW 6.9mph /  11.1km/h 9mph /  14.5km/h 81% 0in /  0.0mm 97 W/m2
12:24 53.1 °F /  11.7 °C 47.7 °F /  8.7 °C 29.8in /  1007.5hPa WNW 8.9mph /  14.3km/h 9mph /  14.5km/h 82% 0in /  0.0mm 102 W/m2
12:29 52.7 °F /  11.5 °C 48 °F /  8.9 °C 29.8in /  1007.5hPa WNW 2.9mph /  4.7km/h 7mph /  11.3km/h 84% 0in /  0.0mm 114 W/m2
12:34 52.5 °F /  11.4 °C 48.2 °F /  9 °C 29.8in /  1007.5hPa West 2.9mph /  4.7km/h 8mph /  12.9km/h 85% 0in /  0.0mm 141 W/m2
12:39 52.2 °F /  11.2 °C 48 °F /  8.9 °C 29.8in /  1007.5hPa NW 2.9mph /  4.7km/h 9mph /  14.5km/h 86% 0in /  0.0mm 193 W/m2
12:44 52.3 °F /  11.3 °C 48.9 °F /  9.4 °C 29.8in /  1007.5hPa NW 4mph /  6.4km/h 4mph /  6.4km/h 88% 0.01in /  0.2mm 271 W/m2
12:49 52.3 °F /  11.3 °C 48.9 °F /  9.4 °C 29.8in /  1007.5hPa NW 4mph /  6.4km/h 8mph /  12.9km/h 88% 0.01in /  0.2mm 279 W/m2
12:54 52.5 °F /  11.4 °C 49.5 °F /  9.7 °C 29.8in /  1007.5hPa NW 2.9mph /  4.7km/h 5mph /  8km/h 89% 0.01in /  0.2mm 244 W/m2
12:59 52.9 °F /  11.6 °C 49.6 °F /  9.8 °C 29.8in /  1007.5hPa NW 2mph /  3.2km/h 8mph /  12.9km/h 89% 0.01in /  0.2mm 171 W/m2
13:04 52.9 °F /  11.6 °C 49.6 °F /  9.8 °C 29.8in /  1007.5hPa WNW 6.9mph /  11.1km/h 7mph /  11.3km/h 89% 0.01in /  0.2mm 174 W/m2
13:09 52.3 °F /  11.3 °C 48.9 °F /  9.4 °C 29.8in /  1007.5hPa West 6mph /  9.7km/h 10mph /  16.1km/h 88% 0.01in /  0.2mm 188 W/m2
13:14 52.2 °F /  11.2 °C 48.7 °F /  9.3 °C 29.8in /  1007.5hPa WSW 4.9mph /  7.9km/h 7mph /  11.3km/h 88% 0.01in /  0.2mm 255 W/m2
13:19 51.8 °F /  11 °C 48.4 °F /  9.1 °C 29.8in /  1007.5hPa West 6mph /  9.7km/h 11mph /  17.7km/h 88% 0.01in /  0.2mm 253 W/m2
13:24 51.8 °F /  11 °C 48.7 °F /  9.3 °C 29.8in /  1007.5hPa West 6mph /  9.7km/h 8mph /  12.9km/h 89% 0.01in /  0.2mm 230 W/m2
13:29 52 °F /  11.1 °C 48.9 °F /  9.4 °C 29.8in /  1007.5hPa West 6.9mph /  11.1km/h 8mph /  12.9km/h 89% 0.01in /  0.2mm 193 W/m2
13:34 51.8 °F /  11 °C 48.7 °F /  9.3 °C 29.8in /  1007.5hPa WNW 0.9mph /  1.4km/h 8mph /  12.9km/h 89% 0.01in /  0.2mm 183 W/m2
13:39 51.8 °F /  11 °C 48.4 °F /  9.1 °C 29.8in /  1007.5hPa West 8.1mph /  13km/h 9mph /  14.5km/h 88% 0.01in /  0.2mm 200 W/m2
13:44 51.8 °F /  11 °C 48 °F /  8.9 °C 29.8in /  1007.8hPa NW 2mph /  3.2km/h 11mph /  17.7km/h 87% 0in /  0.0mm 207 W/m2
13:49 51.6 °F /  10.9 °C 48.2 °F /  9 °C 29.8in /  1007.8hPa WNW 4.9mph /  7.9km/h 10mph /  16.1km/h 88% 0in /  0.0mm 225 W/m2
13:54 51.6 °F /  10.9 °C 48.2 °F /  9 °C 29.8in /  1007.5hPa WSW 4mph /  6.4km/h 7mph /  11.3km/h 88% 0in /  0.0mm 221 W/m2
13:59 51.8 °F /  11 °C 48.4 °F /  9.1 °C 29.8in /  1007.8hPa NW 4.9mph /  7.9km/h 8mph /  12.9km/h 88% 0in /  0.0mm 236 W/m2
14:04 52 °F /  11.1 °C 48.2 °F /  9 °C 29.8in /  1007.8hPa West 6.9mph /  11.1km/h 8mph /  12.9km/h 87% 0in /  0.0mm 234 W/m2
14:09 52 °F /  11.1 °C 48.2 °F /  9 °C 29.8in /  1007.8hPa West 2.9mph /  4.7km/h 9mph /  14.5km/h 87% 0in /  0.0mm 308 W/m2
14:14 52.3 °F /  11.3 °C 48.6 °F /  9.2 °C 29.8in /  1007.5hPa West 4mph /  6.4km/h 7mph /  11.3km/h 87% 0.01in /  0.2mm 424 W/m2
14:19 52.7 °F /  11.5 °C 48.9 °F /  9.4 °C 29.8in /  1007.8hPa NNW 0.9mph /  1.4km/h 9mph /  14.5km/h 87% 0.01in /  0.2mm 392 W/m2
14:24 53.2 °F /  11.8 °C 48.9 °F /  9.4 °C 29.8in /  1007.8hPa NW 4.9mph /  7.9km/h 8mph /  12.9km/h 85% 0.01in /  0.2mm 550 W/m2
14:29 53.4 °F /  11.9 °C 49.1 °F /  9.5 °C 29.8in /  1007.8hPa WSW 4mph /  6.4km/h 8mph /  12.9km/h 85% 0.01in /  0.2mm 643 W/m2
14:34 54 °F /  12.2 °C 49.3 °F /  9.6 °C 29.8in /  1007.8hPa West 2mph /  3.2km/h 4mph /  6.4km/h 84% 0.01in /  0.2mm 779 W/m2
14:39 54.1 °F /  12.3 °C 48.4 °F /  9.1 °C 29.8in /  1007.8hPa WNW 10.1mph /  16.3km/h 10mph /  16.1km/h 81% 0.01in /  0.2mm 605 W/m2
14:44 54.3 °F /  12.4 °C 48.6 °F /  9.2 °C 29.8in /  1007.8hPa WSW 2mph /  3.2km/h 8mph /  12.9km/h 81% 0.01in /  0.2mm 563 W/m2
14:49 55 °F /  12.8 °C 49.3 °F /  9.6 °C 29.8in /  1007.5hPa WNW 4mph /  6.4km/h 7mph /  11.3km/h 81% 0.01in /  0.2mm 1076 W/m2
14:54 55.2 °F /  12.9 °C 47.8 °F /  8.8 °C 29.8in /  1007.5hPa WNW 6mph /  9.7km/h 7mph /  11.3km/h 76% 0.01in /  0.2mm 223 W/m2
14:59 54.9 °F /  12.7 °C 47.5 °F /  8.6 °C 29.8in /  1007.5hPa WNW 4mph /  6.4km/h 13mph /  20.9km/h 76% 0.01in /  0.2mm 257 W/m2
15:04 54.9 °F /  12.7 °C 48.2 °F /  9 °C 29.8in /  1007.5hPa NW 2.9mph /  4.7km/h 4mph /  6.4km/h 78% 0.01in /  0.2mm 427 W/m2
15:09 55 °F /  12.8 °C 48.4 °F /  9.1 °C 29.8in /  1007.5hPa West 2.9mph /  4.7km/h 13mph /  20.9km/h 78% 0.01in /  0.2mm 905 W/m2
15:14 55.9 °F /  13.3 °C 48.2 °F /  9 °C 29.8in /  1007.5hPa WSW 4mph /  6.4km/h 10mph /  16.1km/h 75% 0in /  0.0mm 1028 W/m2
15:19 56.8 °F /  13.8 °C 48.2 °F /  9 °C 29.8in /  1007.5hPa North 0.9mph /  1.4km/h 7mph /  11.3km/h 73% 0in /  0.0mm 977 W/m2
15:24 57.4 °F /  14.1 °C 47.7 °F /  8.7 °C 29.8in /  1007.5hPa WSW 4mph /  6.4km/h 8mph /  12.9km/h 70% 0in /  0.0mm 902 W/m2
15:29 57 °F /  13.9 °C 46.9 °F /  8.3 °C 29.7in /  1007.1hPa West 2.9mph /  4.7km/h 8mph /  12.9km/h 69% 0in /  0.0mm 209 W/m2
15:34 57.4 °F /  14.1 °C 46.9 °F /  8.3 °C 29.7in /  1007.1hPa Calm   4mph /  6.4km/h 68% 0in /  0.0mm 605 W/m2
15:39 57.6 °F /  14.2 °C 47.1 °F /  8.4 °C 29.7in /  1007.1hPa Calm   5mph /  8km/h 68% 0in /  0.0mm 413 W/m2
15:44 57.7 °F /  14.3 °C 47.3 °F /  8.5 °C 29.7in /  1007.1hPa NNW 6mph /  9.7km/h 8mph /  12.9km/h 68% 0in /  0.0mm 624 W/m2
15:49 57.6 °F /  14.2 °C 46.2 °F /  7.9 °C 29.7in /  1007.1hPa West 6mph /  9.7km/h 9mph /  14.5km/h 66% 0in /  0.0mm 461 W/m2
15:54 57.4 °F /  14.1 °C 46 °F /  7.8 °C 29.7in /  1007.1hPa Calm   3mph /  4.8km/h 66% 0in /  0.0mm 406 W/m2
15:59 57.4 °F /  14.1 °C 46 °F /  7.8 °C 29.7in /  1007.1hPa WNW 2.9mph /  4.7km/h 8mph /  12.9km/h 66% 0in /  0.0mm 130 W/m2
16:04 56.8 °F /  13.8 °C 46 °F /  7.8 °C 29.7in /  1007.1hPa WSW 2.9mph /  4.7km/h 7mph /  11.3km/h 67% 0in /  0.0mm 171 W/m2
16:09 57.2 °F /  14 °C 46.8 °F /  8.2 °C 29.7in /  1006.8hPa WNW 2.9mph /  4.7km/h 4mph /  6.4km/h 68% 0in /  0.0mm 378 W/m2
16:14 57.4 °F /  14.1 °C 46 °F /  7.8 °C 29.7in /  1006.8hPa Calm   4mph /  6.4km/h 66% 0in /  0.0mm 202 W/m2
16:19 57.6 °F /  14.2 °C 46.2 °F /  7.9 °C 29.7in /  1006.8hPa SW 6mph /  9.7km/h 7mph /  11.3km/h 66% 0in /  0.0mm 174 W/m2
16:24 57.7 °F /  14.3 °C 46.4 °F /  8 °C 29.7in /  1006.8hPa NW 0.9mph /  1.4km/h 3mph /  4.8km/h 66% 0in /  0.0mm 591 W/m2
16:29 58.5 °F /  14.7 °C 45.1 °F /  7.3 °C 29.7in /  1006.4hPa NW 2mph /  3.2km/h 6mph /  9.7km/h 61% 0in /  0.0mm 283 W/m2
16:34 59.2 °F /  15.1 °C 45.3 °F /  7.4 °C 29.7in /  1006.8hPa WNW 8.1mph /  13km/h 8mph /  12.9km/h 60% 0in /  0.0mm 833 W/m2
16:39 59.7 °F /  15.4 °C 44.1 °F /  6.7 °C 29.7in /  1006.4hPa West 2.9mph /  4.7km/h 7mph /  11.3km/h 56% 0in /  0.0mm 721 W/m2
16:44 60.3 °F /  15.7 °C 44.1 °F /  6.7 °C 29.7in /  1006.4hPa NW 4mph /  6.4km/h 8mph /  12.9km/h 55% 0in /  0.0mm 320 W/m2
16:49 60.1 °F /  15.6 °C 44.4 °F /  6.9 °C 29.7in /  1006.4hPa WNW 4mph /  6.4km/h 4mph /  6.4km/h 56% 0in /  0.0mm 146 W/m2
16:54 59.4 °F /  15.2 °C 43.7 °F /  6.5 °C 29.7in /  1006.4hPa WSW 0.9mph /  1.4km/h 5mph /  8km/h 56% 0in /  0.0mm 179 W/m2
16:59 59.4 °F /  15.2 °C 42.8 °F /  6 °C 29.7in /  1006.4hPa WNW 6.9mph /  11.1km/h 10mph /  16.1km/h 54% 0in /  0.0mm 754 W/m2
17:04 59.4 °F /  15.2 °C 43.2 °F /  6.2 °C 29.7in /  1006.4hPa WNW 4mph /  6.4km/h 13mph /  20.9km/h 55% 0in /  0.0mm 204 W/m2
17:09 59.5 °F /  15.3 °C 43.3 °F /  6.3 °C 29.7in /  1006.4hPa NW 6.9mph /  11.1km/h 10mph /  16.1km/h 55% 0in /  0.0mm 568 W/m2
17:14 59.7 °F /  15.4 °C 43 °F /  6.1 °C 29.7in /  1006.4hPa WNW 4mph /  6.4km/h 8mph /  12.9km/h 54% 0in /  0.0mm 698 W/m2
17:19 59.7 °F /  15.4 °C 43.5 °F /  6.4 °C 29.7in /  1006.4hPa WSW 2mph /  3.2km/h 9mph /  14.5km/h 55% 0in /  0.0mm 751 W/m2
17:24 59.9 °F /  15.5 °C 43.7 °F /  6.5 °C 29.7in /  1006.4hPa North 6mph /  9.7km/h 8mph /  12.9km/h 55% 0in /  0.0mm 373 W/m2
17:29 59.4 °F /  15.2 °C 43.7 °F /  6.5 °C 29.7in /  1006.4hPa WNW 4.9mph /  7.9km/h 7mph /  11.3km/h 56% 0in /  0.0mm 204 W/m2
17:34 58.8 °F /  14.9 °C 43.2 °F /  6.2 °C 29.7in /  1006.4hPa West 6mph /  9.7km/h 8mph /  12.9km/h 56% 0in /  0.0mm 348 W/m2
17:39 58.8 °F /  14.9 °C 43.2 °F /  6.2 °C 29.7in /  1006.4hPa West 2.9mph /  4.7km/h 4mph /  6.4km/h 56% 0in /  0.0mm 178 W/m2
17:44 58.8 °F /  14.9 °C 43.7 °F /  6.5 °C 29.7in /  1006.4hPa WNW 4mph /  6.4km/h 6mph /  9.7km/h 57% 0in /  0.0mm 461 W/m2
17:49 58.8 °F /  14.9 °C 43.7 °F /  6.5 °C 29.7in /  1006.4hPa West 2mph /  3.2km/h 6mph /  9.7km/h 57% 0in /  0.0mm 251 W/m2
17:54 59.2 °F /  15.1 °C 43.9 °F /  6.6 °C 29.7in /  1006.4hPa WNW 4.9mph /  7.9km/h 9mph /  14.5km/h 57% 0in /  0.0mm 606 W/m2
17:59 59.4 °F /  15.2 °C 44.6 °F /  7 °C 29.7in /  1006.4hPa WNW 0.9mph /  1.4km/h 4mph /  6.4km/h 58% 0in /  0.0mm 214 W/m2
18:04 59.9 °F /  15.5 °C 44.6 °F /  7 °C 29.7in /  1006.4hPa Calm   9mph /  14.5km/h 57% 0in /  0.0mm 561 W/m2
18:09 60.1 °F /  15.6 °C 44.8 °F /  7.1 °C 29.7in /  1006.4hPa North 0.9mph /  1.4km/h 6mph /  9.7km/h 57% 0in /  0.0mm 128 W/m2
18:14 59.7 °F /  15.4 °C 44.4 °F /  6.9 °C 29.7in /  1006.4hPa West 2mph /  3.2km/h 9mph /  14.5km/h 57% 0in /  0.0mm 142 W/m2
18:19 59.2 °F /  15.1 °C 44.4 °F /  6.9 °C 29.7in /  1006.4hPa West 0.9mph /  1.4km/h 6mph /  9.7km/h 58% 0in /  0.0mm 171 W/m2
18:24 58.8 °F /  14.9 °C 44.6 °F /  7 °C 29.7in /  1006.4hPa WNW 2.9mph /  4.7km/h 7mph /  11.3km/h 59% 0in /  0.0mm 181 W/m2
18:29 58.6 °F /  14.8 °C 44.4 °F /  6.9 °C 29.7in /  1006.4hPa West 2mph /  3.2km/h 6mph /  9.7km/h 59% 0in /  0.0mm 169 W/m2
18:34 58.5 °F /  14.7 °C 44.6 °F /  7 °C 29.7in /  1006.4hPa WNW 2mph /  3.2km/h 6mph /  9.7km/h 60% 0in /  0.0mm 169 W/m2
18:39 58.6 °F /  14.8 °C 44.8 °F /  7.1 °C 29.7in /  1006.4hPa West 6.9mph /  11.1km/h 7mph /  11.3km/h 60% 0in /  0.0mm 160 W/m2
18:44 58.5 °F /  14.7 °C 44.6 °F /  7 °C 29.7in /  1006.4hPa West 2.9mph /  4.7km/h 4mph /  6.4km/h 60% 0in /  0.0mm 144 W/m2
18:49 58.5 °F /  14.7 °C 45.1 °F /  7.3 °C 29.7in /  1006.4hPa West 4mph /  6.4km/h 4mph /  6.4km/h 61% 0in /  0.0mm 128 W/m2
18:54 58.5 °F /  14.7 °C 45.1 °F /  7.3 °C 29.7in /  1006.4hPa SW 0.9mph /  1.4km/h 6mph /  9.7km/h 61% 0in /  0.0mm 142 W/m2
18:59 58.3 °F /  14.6 °C 44.4 °F /  6.9 °C 29.7in /  1006.4hPa NNW 0.9mph /  1.4km/h 7mph /  11.3km/h 60% 0in /  0.0mm 137 W/m2
19:04 58.3 °F /  14.6 °C 45 °F /  7.2 °C 29.7in /  1006.4hPa WNW 2.9mph /  4.7km/h 4mph /  6.4km/h 61% 0in /  0.0mm 135 W/m2
19:09 58.3 °F /  14.6 °C 45 °F /  7.2 °C 29.7in /  1006.4hPa West 2mph /  3.2km/h 4mph /  6.4km/h 61% 0in /  0.0mm 156 W/m2
19:14 58.3 °F /  14.6 °C 45 °F /  7.2 °C 29.7in /  1006.4hPa NW 2.9mph /  4.7km/h 3mph /  4.8km/h 61% 0in /  0.0mm 141 W/m2
19:19 58.3 °F /  14.6 °C 45 °F /  7.2 °C 29.7in /  1006.4hPa NW 2.9mph /  4.7km/h 3mph /  4.8km/h 61% 0in /  0.0mm 88 W/m2
19:24 58.1 °F /  14.5 °C 44.2 °F /  6.8 °C 29.7in /  1006.4hPa West 2mph /  3.2km/h 5mph /  8km/h 60% 0in /  0.0mm 70 W/m2
19:29 57.9 °F /  14.4 °C 44.6 °F /  7 °C 29.7in /  1006.4hPa NW 0.9mph /  1.4km/h 4mph /  6.4km/h 61% 0in /  0.0mm 74 W/m2
19:34 57.7 °F /  14.3 °C 44.8 °F /  7.1 °C 29.7in /  1006.4hPa WNW 2mph /  3.2km/h 2mph /  3.2km/h 62% 0in /  0.0mm 86 W/m2
19:39 57.6 °F /  14.2 °C 44.6 °F /  7 °C 29.7in /  1006.8hPa West 2mph /  3.2km/h 4mph /  6.4km/h 62% 0in /  0.0mm 79 W/m2
19:44 57.6 °F /  14.2 °C 45.1 °F /  7.3 °C 29.7in /  1006.8hPa NW 2.9mph /  4.7km/h 4mph /  6.4km/h 63% 0in /  0.0mm 72 W/m2
19:49 57.4 °F /  14.1 °C 45.3 °F /  7.4 °C 29.7in /  1006.8hPa West 0.9mph /  1.4km/h 2mph /  3.2km/h 64% 0in /  0.0mm 67 W/m2
19:54 57.4 °F /  14.1 °C 45.3 °F /  7.4 °C 29.7in /  1006.8hPa WNW 2mph /  3.2km/h 3mph /  4.8km/h 64% 0in /  0.0mm 63 W/m2
19:59 57.4 °F /  14.1 °C 45.7 °F /  7.6 °C 29.7in /  1006.4hPa WNW 0.9mph /  1.4km/h 2mph /  3.2km/h 65% 0in /  0.0mm 69 W/m2
20:04 57.4 °F /  14.1 °C 45.7 °F /  7.6 °C 29.7in /  1006.4hPa WNW 0.9mph /  1.4km/h 3mph /  4.8km/h 65% 0in /  0.0mm 58 W/m2
20:09 57.4 °F /  14.1 °C 45.7 °F /  7.6 °C 29.7in /  1006.4hPa Calm     65% 0in /  0.0mm 46 W/m2
20:14 57.4 °F /  14.1 °C 46 °F /  7.8 °C 29.7in /  1006.4hPa Calm     66% 0in /  0.0mm 40 W/m2
20:20 57.2 °F /  14 °C 46.8 °F /  8.2 °C 29.7in /  1006.4hPa Calm   1mph /  1.6km/h 68% 0in /  0.0mm 33 W/m2
20:25 56.8 °F /  13.8 °C 47.1 °F /  8.4 °C 29.7in /  1006.8hPa Calm   1mph /  1.6km/h 70% 0in /  0.0mm 28 W/m2
20:30 56.7 °F /  13.7 °C 46.9 °F /  8.3 °C 29.7in /  1006.8hPa Calm   1mph /  1.6km/h 70% 0in /  0.0mm 21 W/m2
20:35 56.1 °F /  13.4 °C 46.8 °F /  8.2 °C 29.7in /  1006.8hPa WNW 0.9mph /  1.4km/h 1mph /  1.6km/h 71% 0in /  0.0mm 18 W/m2
20:40 55.8 °F /  13.2 °C 46 °F /  7.8 °C 29.7in /  1006.8hPa Calm   1mph /  1.6km/h 70% 0in /  0.0mm 14 W/m2
20:45 55.2 °F /  12.9 °C 46.4 °F /  8 °C 29.7in /  1006.8hPa WNW 0.9mph /  1.4km/h 1mph /  1.6km/h 72% 0in /  0.0mm 11 W/m2
20:50 54.9 °F /  12.7 °C 46 °F /  7.8 °C 29.7in /  1006.8hPa WNW 0.9mph /  1.4km/h 2mph /  3.2km/h 72% 0in /  0.0mm 11 W/m2
20:55 54.1 °F /  12.3 °C 45.7 °F /  7.6 °C 29.7in /  1006.8hPa WNW 0.9mph /  1.4km/h 2mph /  3.2km/h 73% 0in /  0.0mm 9 W/m2
21:00 53.8 °F /  12.1 °C 45.7 °F /  7.6 °C 29.7in /  1006.8hPa WNW 0.9mph /  1.4km/h 1mph /  1.6km/h 74% 0in /  0.0mm 7 W/m2
21:05 53.2 °F /  11.8 °C 45.5 °F /  7.5 °C 29.7in /  1006.8hPa WNW 0.9mph /  1.4km/h 1mph /  1.6km/h 75% 0in /  0.0mm 5 W/m2
21:10 52.9 °F /  11.6 °C 45.5 °F /  7.5 °C 29.7in /  1006.8hPa Calm   1mph /  1.6km/h 76% 0in /  0.0mm 5 W/m2
21:15 52.5 °F /  11.4 °C 45.5 °F /  7.5 °C 29.7in /  1006.8hPa Calm   1mph /  1.6km/h 77% 0in /  0.0mm 0 W/m2
21:20 52.3 °F /  11.3 °C 45.3 °F /  7.4 °C 29.7in /  1006.8hPa WNW 0.9mph /  1.4km/h 2mph /  3.2km/h 77% 0in /  0.0mm 0 W/m2
21:25 52 °F /  11.1 °C 45.3 °F /  7.4 °C 29.7in /  1006.8hPa WNW 0.9mph /  1.4km/h 1mph /  1.6km/h 78% 0in /  0.0mm 0 W/m2
21:30 51.6 °F /  10.9 °C 45 °F /  7.2 °C 29.7in /  1007.1hPa WNW 2mph /  3.2km/h 2mph /  3.2km/h 78% 0in /  0.0mm 0 W/m2
21:35 51.4 °F /  10.8 °C 44.8 °F /  7.1 °C 29.7in /  1007.1hPa Calm   1mph /  1.6km/h 78% 0in /  0.0mm 0 W/m2
21:40 51.4 °F /  10.8 °C 45.1 °F /  7.3 °C 29.7in /  1007.1hPa WNW 0.9mph /  1.4km/h 2mph /  3.2km/h 79% 0in /  0.0mm 0 W/m2
21:45 51.3 °F /  10.7 °C 45 °F /  7.2 °C 29.7in /  1007.1hPa WNW 0.9mph /  1.4km/h 1mph /  1.6km/h 79% 0in /  0.0mm 0 W/m2
21:50 51.1 °F /  10.6 °C 45.1 °F /  7.3 °C 29.7in /  1007.1hPa Calm   2mph /  3.2km/h 80% 0in /  0.0mm 0 W/m2
21:55 50.7 °F /  10.4 °C 44.8 °F /  7.1 °C 29.7in /  1007.1hPa WNW 0.9mph /  1.4km/h 2mph /  3.2km/h 80% 0in /  0.0mm 0 W/m2
22:00 50.7 °F /  10.4 °C 45.1 °F /  7.3 °C 29.7in /  1007.1hPa WNW 0.9mph /  1.4km/h 1mph /  1.6km/h 81% 0in /  0.0mm 0 W/m2
22:05 50.7 °F /  10.4 °C 45.1 °F /  7.3 °C 29.7in /  1007.1hPa WNW 2mph /  3.2km/h 3mph /  4.8km/h 81% 0in /  0.0mm 0 W/m2
22:10 51.1 °F /  10.6 °C 45.1 °F /  7.3 °C 29.8in /  1007.5hPa West 0.9mph /  1.4km/h 3mph /  4.8km/h 80% 0in /  0.0mm 0 W/m2
22:15 51.4 °F /  10.8 °C 45.5 °F /  7.5 °C 29.7in /  1007.1hPa West 0.9mph /  1.4km/h 2mph /  3.2km/h 80% 0in /  0.0mm 0 W/m2
22:20 52 °F /  11.1 °C 45.7 °F /  7.6 °C 29.8in /  1007.5hPa West 0.9mph /  1.4km/h 2mph /  3.2km/h 79% 0in /  0.0mm 0 W/m2
22:25 52.3 °F /  11.3 °C 46 °F /  7.8 °C 29.8in /  1007.5hPa West 2.9mph /  4.7km/h 3mph /  4.8km/h 79% 0in /  0.0mm 0 W/m2
22:30 52.5 °F /  11.4 °C 46.2 °F /  7.9 °C 29.8in /  1007.5hPa Calm   2mph /  3.2km/h 79% 0in /  0.0mm 0 W/m2
22:35 52.7 °F /  11.5 °C 46.4 °F /  8 °C 29.7in /  1007.1hPa Calm   4mph /  6.4km/h 79% 0in /  0.0mm 0 W/m2
22:40 52.7 °F /  11.5 °C 46.4 °F /  8 °C 29.7in /  1007.1hPa Calm     79% 0in /  0.0mm 0 W/m2
22:45 52.7 °F /  11.5 °C 46.4 °F /  8 °C 29.7in /  1007.1hPa Calm   3mph /  4.8km/h 79% 0in /  0.0mm 0 W/m2
22:50 52.7 °F /  11.5 °C 46 °F /  7.8 °C 29.7in /  1007.1hPa Calm     78% 0in /  0.0mm 0 W/m2
22:55 52.5 °F /  11.4 °C 46.2 °F /  7.9 °C 29.7in /  1007.1hPa Calm     79% 0in /  0.0mm 0 W/m2
23:00 52.5 °F /  11.4 °C 46.2 °F /  7.9 °C 29.7in /  1007.1hPa Calm     79% 0in /  0.0mm 0 W/m2
23:05 52.2 °F /  11.2 °C 46.2 °F /  7.9 °C 29.7in /  1007.1hPa Calm     80% 0in /  0.0mm 0 W/m2
23:10 52 °F /  11.1 °C 46.4 °F /  8 °C 29.7in /  1007.1hPa Calm     81% 0in /  0.0mm 0 W/m2
23:15 51.6 °F /  10.9 °C 46 °F /  7.8 °C 29.7in /  1007.1hPa Calm     81% 0in /  0.0mm 0 W/m2
23:20 51.4 °F /  10.8 °C 46.2 °F /  7.9 °C 29.7in /  1007.1hPa Calm   2mph /  3.2km/h 82% 0in /  0.0mm 0 W/m2
23:25 51.3 °F /  10.7 °C 46 °F /  7.8 °C 29.7in /  1007.1hPa NNE 2mph /  3.2km/h 2mph /  3.2km/h 82% 0in /  0.0mm 0 W/m2
23:30 51.1 °F /  10.6 °C 45.9 °F /  7.7 °C 29.7in /  1007.1hPa Calm   1mph /  1.6km/h 82% 0in /  0.0mm 0 W/m2
23:35 51.1 °F /  10.6 °C 45.9 °F /  7.7 °C 29.7in /  1007.1hPa Calm   1mph /  1.6km/h 82% 0in /  0.0mm 0 W/m2
23:40 50.7 °F /  10.4 °C 45.7 °F /  7.6 °C 29.7in /  1007.1hPa Calm   2mph /  3.2km/h 83% 0in /  0.0mm 0 W/m2
23:45 50.5 °F /  10.3 °C 45.5 °F /  7.5 °C 29.7in /  1007.1hPa Calm     83% 0in /  0.0mm 0 W/m2
23:50 50.4 °F /  10.2 °C 45.3 °F /  7.4 °C 29.7in /  1007.1hPa Calm     83% 0in /  0.0mm 0 W/m2
23:55 49.8 °F /  9.9 °C 45.1 °F /  7.3 °C 29.8in /  1007.5hPa Calm     84% 0in /  0.0mm 0 W/m2
Juneau County Weather
Compliments of Weather Underground - 4 mb